Time;durP1;ratioP1;P1;durP2;ratioP2;P2;SDS_P1;SDS_P2;PMS_P1;PMS_P2;Temp;Humidity;BMP_temperature;BMP_pressure;BME280_temperature;BME280_humidity;BME280_pressure;Samples;Min_cycle;Max_cycle;Signal;HPM_P1;HPM_P2
2023/01/24 06:08:48;;;;;;;23.70;13.25;;;2.00;1.00;;;;;;6188431;22;20728;-80
2023/01/24 06:11:20;;;;;;;28.17;12.70;;;2.10;1.00;;;;;;6194955;22;20280;-81
2023/01/24 06:13:59;;;;;;;23.25;13.13;;;2.00;1.00;;;;;;6180464;23;20210;-81
2023/01/24 06:16:27;;;;;;;25.90;14.68;;;2.00;1.00;;;;;;6182125;23;20262;-81
2023/01/24 06:18:56;;;;;;;20.80;11.70;;;2.00;1.00;;;;;;6190729;23;20313;-80
2023/01/24 06:21:37;;;;;;;37.45;15.20;;;2.10;1.00;;;;;;6175689;23;20214;-79
2023/01/24 06:24:09;;;;;;;30.35;14.50;;;2.10;1.00;;;;;;6193841;22;20210;-83
2023/01/24 06:26:37;;;;;;;24.45;15.15;;;2.10;1.00;;;;;;6197734;22;20220;-79
2023/01/24 06:29:08;;;;;;;26.13;13.32;;;2.10;1.00;;;;;;6195884;23;20210;-79
2023/01/24 06:31:46;;;;;;;29.40;14.93;;;2.10;1.00;;;;;;6187011;23;20217;-80
2023/01/24 06:34:48;;;;;;;29.42;14.77;;;2.10;1.00;;;;;;6182013;22;20679;-81
2023/01/24 06:37:29;;;;;;;38.40;17.27;;;2.20;1.00;;;;;;6179969;23;20209;-79
2023/01/24 06:39:58;;;;;;;34.92;20.85;;;2.20;1.00;;;;;;6191276;23;20244;-79
2023/01/24 06:42:26;;;;;;;30.30;16.45;;;2.20;1.00;;;;;;6180926;23;20210;-81
2023/01/24 06:44:53;;;;;;;27.90;15.40;;;2.20;1.00;;;;;;6178554;23;20245;-78
2023/01/24 06:47:58;;;;;;;26.85;16.10;;;2.20;1.00;;;;;;6182102;23;20723;-83
2023/01/24 06:50:31;;;;;;;31.90;15.52;;;2.20;1.00;;;;;;6135685;23;20205;-81
2023/01/24 07:20:00;;;;;;;41.20;19.58;;;2.20;1.00;;;;;;6102253;23;20210;-80
2023/01/24 07:22:30;;;;;;;43.25;19.88;;;2.20;1.00;;;;;;6164165;22;20294;-84
2023/01/24 07:25:28;;;;;;;37.03;18.42;;;2.10;1.00;;;;;;6136415;23;20299;-83
2023/01/24 07:28:08;;;;;;;43.47;20.73;;;2.20;1.00;;;;;;6116067;23;20228;-85
2023/01/24 07:30:46;;;;;;;35.20;19.27;;;2.20;1.00;;;;;;6153743;23;20218;-83
2023/01/24 07:58:31;;;;;;;42.90;21.30;;;2.40;1.00;;;;;;5859609;24;20228;-84
2023/01/24 08:01:10;;;;;;;42.05;22.17;;;2.40;1.00;;;;;;5956707;23;20255;-79
2023/01/24 08:03:39;;;;;;;49.85;24.27;;;2.50;1.00;;;;;;5963220;24;20299;-80
2023/01/24 08:06:17;;;;;;;48.72;24.30;;;2.40;1.00;;;;;;5950436;23;20215;-85
2023/01/24 08:08:48;;;;;;;44.70;21.60;;;2.50;1.00;;;;;;5980521;23;20672;-82
2023/01/24 08:11:28;;;;;;;50.97;23.98;;;2.50;1.00;;;;;;5958499;23;20219;-81
2023/01/24 08:14:01;;;;;;;50.97;21.90;;;2.50;1.00;;;;;;5954929;23;20231;-83
2023/01/24 08:16:39;;;;;;;;;;;;;;;;;;;;;
2023/01/24 08:19:09;;;;;;;50.03;22.63;;;2.60;1.00;;;;;;5935922;24;49083;-81
2023/01/24 08:21:37;;;;;;;55.05;25.42;;;2.60;1.00;;;;;;5961954;23;20214;-82
2023/01/24 08:24:12;;;;;;;56.40;23.67;;;2.70;1.00;;;;;;5994339;23;20223;-82
2023/01/24 08:26:40;;;;;;;49.35;24.45;;;2.70;1.00;;;;;;6100768;23;20242;-76
2023/01/24 08:29:24;;;;;;;47.42;23.58;;;2.70;1.00;;;;;;6134522;23;20267;-80
2023/01/24 08:31:52;;;;;;;52.63;24.25;;;2.80;1.00;;;;;;6117039;23;20942;-81
2023/01/24 08:34:19;;;;;;;46.00;21.38;;;2.70;1.00;;;;;;6131216;23;20245;-81
2023/01/24 08:36:47;;;;;;;45.25;23.33;;;2.80;1.00;;;;;;6111774;23;20261;-82
2023/01/24 08:39:19;;;;;;;53.28;25.13;;;2.80;1.00;;;;;;6130318;23;20215;-81
2023/01/24 08:41:50;;;;;;;51.90;25.83;;;2.90;1.00;;;;;;6128458;23;20243;-80
2023/01/24 08:44:17;;;;;;;53.67;23.98;;;2.90;1.00;;;;;;6161240;23;20871;-82
2023/01/24 08:46:44;;;;;;;53.60;25.05;;;3.00;1.00;;;;;;6159754;23;21071;-79
2023/01/24 08:49:22;;;;;;;;;;;;;;;;;;;;;
2023/01/24 08:51:58;;;;;;;57.13;26.10;;;2.90;1.00;;;;;;6128186;23;38846;-80
2023/01/24 08:54:25;;;;;;;60.67;25.63;;;3.00;1.00;;;;;;6148589;23;20206;-80
2023/01/24 08:57:04;;;;;;;50.20;24.63;;;3.00;1.00;;;;;;6161154;23;20225;-80
2023/01/24 08:59:31;;;;;;;48.97;24.98;;;3.00;1.00;;;;;;6163742;23;20293;-80
2023/01/24 09:02:00;;;;;;;55.22;27.30;;;3.00;1.00;;;;;;6145967;23;20258;-80
2023/01/24 09:04:27;;;;;;;55.85;25.85;;;3.10;1.00;;;;;;6146688;23;20211;-77
2023/01/24 09:06:55;;;;;;;53.33;25.40;;;3.10;1.00;;;;;;6162222;23;20222;-80
2023/01/24 09:09:24;;;;;;;56.47;26.90;;;3.10;1.00;;;;;;6148723;23;20273;-79
2023/01/24 09:12:09;;;;;;;57.78;24.90;;;3.10;1.00;;;;;;6159986;23;20294;-80
2023/01/24 09:14:36;;;;;;;42.00;24.02;;;3.20;1.00;;;;;;6145008;23;20254;-78
2023/01/24 09:17:04;;;;;;;53.72;25.20;;;3.20;1.00;;;;;;6161344;23;20302;-85
2023/01/24 09:19:33;;;;;;;44.67;22.83;;;3.30;1.00;;;;;;6150874;23;20215;-84
2023/01/24 09:22:00;;;;;;;51.00;23.45;;;3.30;1.00;;;;;;6163549;23;20246;-80
2023/01/24 09:24:30;;;;;;;44.60;23.45;;;3.30;1.00;;;;;;6164555;23;20225;-82
2023/01/24 09:26:57;;;;;;;48.03;23.40;;;3.50;1.00;;;;;;6163426;23;20298;-81
2023/01/24 09:29:31;;;;;;;45.53;23.40;;;3.50;1.00;;;;;;6146796;23;20215;-80
2023/01/24 09:31:58;;;;;;;54.05;28.13;;;3.50;1.00;;;;;;6129017;23;21374;-81
2023/01/24 09:34:27;;;;;;;52.30;25.88;;;3.40;1.00;;;;;;6167587;23;20267;-78
2023/01/24 09:36:54;;;;;;;58.40;26.63;;;3.40;1.00;;;;;;6162103;23;21097;-79
2023/01/24 09:39:21;;;;;;;56.45;24.65;;;3.40;1.00;;;;;;6169564;23;20277;-86
2023/01/24 09:42:00;;;;;;;49.40;26.55;;;3.50;1.00;;;;;;6151548;23;20211;-83
2023/01/24 09:44:38;;;;;;;50.70;26.67;;;3.50;1.00;;;;;;6158132;23;20210;-83
2023/01/24 09:47:19;;;;;;;63.83;26.25;;;3.50;1.00;;;;;;6148042;23;20215;-80
2023/01/24 09:49:51;;;;;;;61.08;28.13;;;3.50;1.00;;;;;;6157038;23;20270;-78
2023/01/24 09:52:37;;;;;;;54.85;24.85;;;3.60;1.00;;;;;;6130900;23;20267;-81
2023/01/24 09:55:12;;;;;;;49.75;24.42;;;3.70;1.00;;;;;;6160123;23;20217;-79
2023/01/24 09:57:49;;;;;;;53.55;25.13;;;3.70;1.00;;;;;;6147014;23;20211;-79
2023/01/24 10:00:25;;;;;;;55.63;26.20;;;3.80;1.00;;;;;;6161926;23;20212;-81
2023/01/24 10:02:53;;;;;;;47.10;22.48;;;3.80;1.00;;;;;;6158012;23;20286;-79
2023/01/24 10:05:24;;;;;;;47.05;23.67;;;3.80;1.00;;;;;;6161575;23;20246;-80
2023/01/24 10:08:24;;;;;;;44.97;23.60;;;3.90;1.00;;;;;;6159558;23;20214;-80
2023/01/24 10:10:56;;;;;;;47.97;22.80;;;4.00;1.00;;;;;;6158937;23;20215;-80
2023/01/24 10:13:37;;;;;;;51.13;24.38;;;4.00;1.00;;;;;;6159676;23;20285;-80
2023/01/24 10:16:19;;;;;;;45.47;23.65;;;4.10;1.00;;;;;;6157676;23;20222;-81
2023/01/24 10:19:00;;;;;;;44.90;24.75;;;4.10;1.00;;;;;;6155356;23;20293;-80
2023/01/24 10:22:13;;;;;;;47.05;24.60;;;4.20;1.00;;;;;;6160629;23;20672;-79
2023/01/24 10:24:43;;;;;;;47.47;24.52;;;4.30;1.00;;;;;;6161750;23;20981;-78
2023/01/24 10:27:22;;;;;;;44.95;24.13;;;4.20;1.00;;;;;;6164344;23;20242;-79
2023/01/24 10:29:56;;;;;;;46.95;25.02;;;4.20;1.00;;;;;;6162259;23;20218;-77
2023/01/24 10:32:31;;;;;;;40.75;23.00;;;4.20;1.00;;;;;;6161850;23;20218;-79
2023/01/24 10:35:04;;;;;;;46.83;24.52;;;4.00;1.00;;;;;;6182669;23;20251;-81
2023/01/24 10:37:39;;;;;;;46.92;25.02;;;4.10;1.00;;;;;;6188144;23;20220;-80
2023/01/24 10:40:14;;;;;;;52.47;24.58;;;4.10;1.00;;;;;;6190192;23;20220;-80
2023/01/24 10:42:41;;;;;;;52.40;25.08;;;4.10;1.00;;;;;;6189604;23;20201;-79
2023/01/24 10:45:41;;;;;;;49.13;24.45;;;4.20;1.00;;;;;;6189345;23;20210;-81
2023/01/24 10:48:23;;;;;;;41.10;22.60;;;4.30;1.00;;;;;;6192276;23;20221;-80
2023/01/24 10:50:50;;;;;;;46.10;23.90;;;4.40;1.00;;;;;;6194557;23;20209;-80
2023/01/24 10:53:25;;;;;;;44.97;23.33;;;4.40;1.00;;;;;;6192588;23;20221;-83
2023/01/24 10:55:59;;;;;;;45.13;25.33;;;4.40;1.00;;;;;;6190626;23;20209;-79
2023/01/24 10:58:34;;;;;;;45.47;23.27;;;4.30;1.00;;;;;;6175896;22;20241;-79
2023/01/24 11:01:18;;;;;;;45.08;24.05;;;4.40;1.00;;;;;;6188474;23;20212;-79
2023/01/24 11:03:48;;;;;;;44.22;24.58;;;4.50;1.00;;;;;;6192236;23;20299;-81
2023/01/24 11:06:32;;;;;;;47.83;25.23;;;4.60;1.00;;;;;;6194721;23;20289;-81
2023/01/24 11:09:11;;;;;;;38.30;22.35;;;4.60;1.00;;;;;;6188696;23;20335;-79
2023/01/24 11:11:46;;;;;;;37.63;22.77;;;4.50;1.00;;;;;;6193568;23;21086;-79
2023/01/24 11:14:15;;;;;;;43.00;23.85;;;4.50;1.00;;;;;;6193830;23;20245;-78
2023/01/24 11:16:45;;;;;;;46.30;23.05;;;4.50;1.00;;;;;;6189637;23;20298;-80
2023/01/24 11:19:27;;;;;;;39.65;23.67;;;4.50;1.00;;;;;;6194054;23;20222;-83
2023/01/24 11:21:56;;;;;;;38.88;22.30;;;4.40;1.00;;;;;;6191927;23;20214;-82
2023/01/24 11:24:24;;;;;;;45.13;24.70;;;4.60;1.00;;;;;;6191624;23;20210;-79
2023/01/24 11:26:56;;;;;;;49.85;25.77;;;4.50;1.00;;;;;;6191600;23;20265;-78
2023/01/24 11:29:23;;;;;;;47.53;25.67;;;4.50;1.00;;;;;;6189416;23;20847;-82
2023/01/24 11:31:53;;;;;;;42.83;21.23;;;4.50;1.00;;;;;;6194031;23;20229;-79
2023/01/24 11:34:46;;;;;;;42.25;23.15;;;4.50;1.00;;;;;;6191276;23;20225;-80
2023/01/24 11:37:52;;;;;;;36.95;22.33;;;4.40;1.00;;;;;;6190892;23;20206;-78
2023/01/24 11:40:44;;;;;;;35.00;21.60;;;4.40;1.00;;;;;;6188606;23;20206;-82
2023/01/24 11:43:36;;;;;;;36.83;21.63;;;4.50;1.00;;;;;;6189867;23;20242;-80
2023/01/24 11:46:21;;;;;;;37.25;21.08;;;4.50;1.00;;;;;;6192186;23;20250;-81
2023/01/24 11:48:55;;;;;;;36.35;20.30;;;4.50;1.00;;;;;;6192269;23;20306;-79
2023/01/24 11:51:42;;;;;;;40.78;23.45;;;4.50;1.00;;;;;;6193162;23;20253;-80
2023/01/24 11:54:31;;;;;;;38.05;21.08;;;4.50;1.00;;;;;;6187689;22;20293;-80
2023/01/24 11:57:03;;;;;;;46.20;23.17;;;4.50;1.00;;;;;;6190750;23;20246;-80
2023/01/24 11:59:46;;;;;;;32.92;20.02;;;4.50;1.00;;;;;;6191526;23;21010;-79
2023/01/24 12:02:49;;;;;;;40.10;22.30;;;4.50;1.00;;;;;;6137115;23;20226;-80
2023/01/24 12:08:45;;;;;;;39.05;20.85;;;4.50;1.00;;;;;;6157547;23;20222;-85
2023/01/24 12:11:30;;;;;;;35.97;21.92;;;4.50;1.00;;;;;;6145835;23;20232;-80
2023/01/24 12:18:30;;;;;;;34.22;19.80;;;4.40;1.00;;;;;;6025107;23;20284;-82
2023/01/24 12:24:15;;;;;;;38.45;22.27;;;4.40;1.00;;;;;;5873722;24;20248;-80
2023/01/24 12:26:48;;;;;;;35.50;20.20;;;4.40;1.00;;;;;;6132534;23;20265;-79
2023/01/24 12:29:40;;;;;;;32.88;20.00;;;4.40;1.00;;;;;;6154627;23;20210;-78
2023/01/24 12:32:22;;;;;;;44.00;21.27;;;4.30;1.00;;;;;;6170808;23;21012;-78
2023/01/24 12:35:11;;;;;;;35.00;21.30;;;4.40;1.00;;;;;;6141982;23;20221;-79
2023/01/24 12:37:43;;;;;;;28.73;20.35;;;4.40;1.00;;;;;;6151418;23;20285;-82
2023/01/24 12:40:39;;;;;;;38.80;22.42;;;4.50;1.00;;;;;;6173855;23;20210;-81
2023/01/24 12:43:29;;;;;;;37.75;21.00;;;4.60;1.00;;;;;;6091120;23;20216;-84
2023/01/24 12:46:11;;;;;;;32.03;21.60;;;4.60;1.00;;;;;;6104917;23;20692;-80
2023/01/24 12:48:50;;;;;;;34.92;19.02;;;4.60;1.00;;;;;;6176188;23;20256;-82
2023/01/24 12:51:37;;;;;;;35.30;19.30;;;4.70;1.00;;;;;;6176490;23;20328;-83
2023/01/24 12:54:11;;;;;;;34.63;21.05;;;4.70;1.00;;;;;;6191566;23;21379;-80
2023/01/24 12:56:49;;;;;;;32.17;20.90;;;4.70;1.00;;;;;;6193401;23;20225;-84
2023/01/24 12:59:22;;;;;;;34.03;22.13;;;4.70;1.00;;;;;;6192785;22;20218;-80
2023/01/24 13:02:36;;;;;;;36.30;21.25;;;4.70;1.00;;;;;;6191667;23;20210;-81
2023/01/24 13:05:26;;;;;;;34.03;20.30;;;4.50;1.00;;;;;;6191845;23;20218;-81
2023/01/24 13:08:07;;;;;;;34.47;20.10;;;4.60;1.00;;;;;;6189247;23;20269;-84
2023/01/24 13:10:49;;;;;;;31.23;19.00;;;4.60;1.00;;;;;;6187840;22;20209;-83
2023/01/24 13:13:25;;;;;;;29.55;18.92;;;4.50;1.00;;;;;;6193706;23;20305;-79
2023/01/24 13:16:04;;;;;;;31.58;19.60;;;4.40;1.00;;;;;;6190499;23;20249;-80
2023/01/24 13:18:46;;;;;;;30.40;19.98;;;4.40;1.00;;;;;;6180870;22;20604;-82
2023/01/24 13:21:27;;;;;;;37.08;19.88;;;4.40;1.00;;;;;;6165220;23;20580;-81
2023/01/24 13:24:28;;;;;;;37.90;18.00;;;4.30;1.00;;;;;;6189556;23;20309;-81
2023/01/24 13:27:15;;;;;;;38.25;20.33;;;4.20;1.00;;;;;;6189919;22;20210;-81
2023/01/24 13:30:23;;;;;;;32.35;17.90;;;4.10;1.00;;;;;;6191303;23;20617;-82
2023/01/24 13:32:51;;;;;;;35.13;20.05;;;4.00;1.00;;;;;;6159601;23;20242;-81
2023/01/24 13:35:22;;;;;;;36.90;19.67;;;4.00;1.00;;;;;;6149360;23;20241;-82
2023/01/24 13:37:56;;;;;;;36.10;23.52;;;3.90;1.00;;;;;;6159932;23;21271;-81
2023/01/24 13:40:29;;;;;;;35.65;20.20;;;3.90;1.00;;;;;;6132314;23;20294;-83
2023/01/24 13:42:57;;;;;;;32.25;18.75;;;4.00;1.00;;;;;;6131012;23;20278;-83
2023/01/24 13:45:58;;;;;;;31.33;19.92;;;3.90;1.00;;;;;;6137012;23;20241;-82
2023/01/24 13:48:57;;;;;;;36.42;19.90;;;4.00;1.00;;;;;;6145004;23;20219;-82
2023/01/24 13:51:48;;;;;;;36.95;19.60;;;4.10;1.00;;;;;;6134060;23;20216;-78
2023/01/24 13:54:37;;;;;;;36.17;19.95;;;4.00;1.00;;;;;;6132520;23;20237;-79
2023/01/24 13:57:28;;;;;;;40.40;19.30;;;4.00;1.00;;;;;;6155488;23;20215;-83
2023/01/24 14:00:17;;;;;;;36.83;20.33;;;3.90;1.00;;;;;;6148719;23;20254;-80
2023/01/24 14:03:03;;;;;;;37.92;19.88;;;4.00;1.00;;;;;;6127077;23;20970;-82
2023/01/24 14:05:39;;;;;;;41.38;20.08;;;4.00;1.00;;;;;;6132832;23;20292;-80
2023/01/24 14:08:30;;;;;;;36.75;19.00;;;4.10;1.00;;;;;;6104679;23;20215;-79
2023/01/24 14:11:31;;;;;;;43.42;22.42;;;4.20;1.00;;;;;;6164265;23;20208;-79
2023/01/24 14:14:21;;;;;;;46.60;22.02;;;4.10;1.00;;;;;;6162959;23;20317;-82
2023/01/24 14:17:32;;;;;;;38.88;20.00;;;4.10;1.00;;;;;;6116109;23;20219;-79
2023/01/24 14:20:01;;;;;;;35.85;21.27;;;4.10;1.00;;;;;;6133334;23;20215;-79
2023/01/24 14:22:48;;;;;;;36.72;21.15;;;4.10;1.00;;;;;;6133868;23;20698;-78
2023/01/24 14:25:46;;;;;;;41.30;20.58;;;4.00;1.00;;;;;;6154353;23;20202;-78
2023/01/24 14:28:22;;;;;;;37.53;21.42;;;4.10;1.00;;;;;;6100891;23;20215;-81
2023/01/24 14:30:54;;;;;;;33.45;20.85;;;4.00;1.00;;;;;;6133352;23;20329;-80
2023/01/24 14:33:37;;;;;;;41.13;22.70;;;3.90;1.00;;;;;;6138930;23;20294;-82
2023/01/24 14:36:20;;;;;;;34.40;20.48;;;3.90;1.00;;;;;;6152255;22;20750;-80
2023/01/24 14:38:48;;;;;;;35.30;21.02;;;3.90;1.00;;;;;;6175566;23;20214;-80
2023/01/24 14:41:22;;;;;;;33.25;19.70;;;3.90;1.00;;;;;;6160888;23;20210;-81
2023/01/24 14:43:50;;;;;;;34.13;20.90;;;3.90;1.00;;;;;;6192313;23;20317;-81
2023/01/24 14:46:21;;;;;;;36.38;20.27;;;4.00;1.00;;;;;;6176305;22;20218;-85
2023/01/24 14:48:49;;;;;;;35.42;20.88;;;3.90;1.00;;;;;;6175785;23;20245;-80
2023/01/24 14:51:19;;;;;;;34.92;20.20;;;3.90;1.00;;;;;;6195363;23;20301;-78
2023/01/24 14:53:51;;;;;;;37.97;22.17;;;3.90;1.00;;;;;;6194919;23;20301;-80
2023/01/24 14:56:18;;;;;;;38.55;19.95;;;3.90;1.00;;;;;;6195534;23;20269;-80
2023/01/24 14:58:46;;;;;;;33.60;19.77;;;3.90;1.00;;;;;;6193262;23;20203;-80
2023/01/24 15:01:30;;;;;;;32.30;20.70;;;3.80;1.00;;;;;;6192673;23;20210;-80
2023/01/24 15:03:59;;;;;;;51.83;20.98;;;3.70;1.00;;;;;;6194363;23;20667;-83
2023/01/24 15:09:42;;;;;;;31.10;19.35;;;3.70;1.00;;;;;;6170554;23;20678;-79
2023/01/24 15:12:34;;;;;;;37.08;22.77;;;3.60;1.00;;;;;;6159585;22;20225;-81
2023/01/24 15:15:11;;;;;;;33.83;22.02;;;3.60;1.00;;;;;;6177575;23;20218;-82
2023/01/24 15:17:39;;;;;;;34.45;20.40;;;3.50;1.00;;;;;;6168814;23;20269;-82
2023/01/24 15:20:12;;;;;;;40.75;20.75;;;3.50;1.00;;;;;;6175615;22;20246;-83
2023/01/24 15:22:42;;;;;;;46.20;22.98;;;3.50;1.00;;;;;;6191835;23;20894;-82
2023/01/24 15:25:20;;;;;;;35.70;21.85;;;3.50;1.00;;;;;;6193281;22;20210;-84
2023/01/24 15:27:51;;;;;;;42.28;21.30;;;3.50;1.00;;;;;;6197695;23;21166;-83
2023/01/24 15:30:20;;;;;;;40.83;20.88;;;3.50;1.00;;;;;;6199539;22;20236;-84
2023/01/24 15:32:49;;;;;;;42.83;22.52;;;3.50;1.00;;;;;;6197130;23;20249;-84
2023/01/24 15:35:38;;;;;;;42.17;22.90;;;3.50;1.00;;;;;;6198548;23;20294;-85
2023/01/24 15:38:32;;;;;;;31.75;20.95;;;3.40;1.00;;;;;;6194661;22;21039;-83
2023/01/24 15:41:21;;;;;;;37.63;21.90;;;3.50;1.00;;;;;;6181314;23;20218;-81
2023/01/24 15:44:00;;;;;;;33.40;19.95;;;3.50;1.00;;;;;;6190278;22;20245;-81
2023/01/24 15:49:24;;;;;;;40.30;22.23;;;3.50;1.00;;;;;;6193184;22;20206;-80
2023/01/24 15:52:22;;;;;;;41.25;22.83;;;3.50;1.00;;;;;;6196107;22;20279;-82
2023/01/24 15:55:00;;;;;;;41.88;22.88;;;3.50;1.00;;;;;;6190616;22;20714;-81
2023/01/24 15:57:30;;;;;;;42.97;22.50;;;3.50;1.00;;;;;;6181967;22;20269;-83
2023/01/24 16:00:21;;;;;;;37.95;21.52;;;3.50;1.00;;;;;;6159922;23;20693;-82
2023/01/24 16:02:50;;;;;;;37.75;21.00;;;3.60;1.00;;;;;;6175049;22;20753;-81
2023/01/24 16:05:25;;;;;;;43.03;23.13;;;3.50;1.00;;;;;;6164087;23;20224;-83
2023/01/24 16:07:52;;;;;;;36.83;21.38;;;3.40;1.00;;;;;;6163897;23;20233;-82
2023/01/24 16:10:20;;;;;;;36.25;21.60;;;3.50;1.00;;;;;;6194111;23;20206;-82
2023/01/24 16:13:01;;;;;;;42.10;21.00;;;3.50;1.00;;;;;;6169573;22;20281;-83
2023/01/24 16:15:32;;;;;;;37.58;21.35;;;3.50;1.00;;;;;;6160517;23;20936;-82
2023/01/24 16:18:00;;;;;;;41.13;21.65;;;3.50;1.00;;;;;;6142876;23;20341;-80
2023/01/24 16:20:40;;;;;;;40.72;20.80;;;3.50;1.00;;;;;;6176875;23;20762;-81
2023/01/24 16:26:23;;;;;;;38.60;21.60;;;3.50;1.00;;;;;;6159624;23;20210;-81
2023/01/24 16:28:51;;;;;;;41.95;23.92;;;3.40;1.00;;;;;;6145372;23;20220;-81
2023/01/24 16:31:21;;;;;;;41.40;24.33;;;3.50;1.00;;;;;;6163335;23;20261;-82
2023/01/24 16:33:52;;;;;;;35.55;20.15;;;3.50;1.00;;;;;;6144858;23;20667;-80
2023/01/24 16:36:21;;;;;;;33.47;21.13;;;3.60;1.00;;;;;;6177977;23;20218;-83
2023/01/24 16:38:51;;;;;;;35.50;20.75;;;3.50;1.00;;;;;;6176608;23;21123;-85
2023/01/24 16:41:23;;;;;;;39.67;22.90;;;3.50;1.00;;;;;;6176921;23;20225;-81
2023/01/24 16:43:51;;;;;;;38.65;18.73;;;3.60;1.00;;;;;;6175788;23;20210;-80
2023/01/24 16:46:22;;;;;;;39.50;20.50;;;3.50;1.00;;;;;;6193789;23;21007;-81
2023/01/24 16:48:50;;;;;;;44.33;24.02;;;3.50;1.00;;;;;;6191719;23;20915;-82
2023/01/24 16:51:21;;;;;;;34.13;21.23;;;3.40;1.00;;;;;;6177998;23;20206;-83
2023/01/24 16:54:01;;;;;;;37.60;20.65;;;3.40;1.00;;;;;;6163664;23;20222;-82
2023/01/24 16:56:33;;;;;;;31.35;19.83;;;3.40;1.00;;;;;;6178489;23;20210;-83
2023/01/24 16:59:02;;;;;;;41.45;22.17;;;3.50;1.00;;;;;;6159912;23;20246;-83
2023/01/24 17:01:41;;;;;;;34.33;22.60;;;3.50;1.00;;;;;;6194568;22;20230;-82
2023/01/24 17:04:11;;;;;;;35.00;20.95;;;3.50;1.00;;;;;;6177788;23;20202;-83
2023/01/24 17:06:38;;;;;;;38.13;21.10;;;3.50;1.00;;;;;;6193135;23;20202;-82
2023/01/24 17:09:11;;;;;;;30.60;17.63;;;3.50;1.00;;;;;;6179947;23;20300;-84
2023/01/24 17:11:43;;;;;;;37.72;21.17;;;3.50;1.00;;;;;;6192948;22;20234;-83
2023/01/24 17:14:14;;;;;;;32.83;19.17;;;3.50;1.00;;;;;;6195085;23;20226;-85
2023/01/24 17:16:41;;;;;;;33.20;19.15;;;3.40;1.00;;;;;;6178099;22;20218;-84
2023/01/24 17:19:23;;;;;;;31.80;19.92;;;3.40;1.00;;;;;;6194419;23;20222;-82
2023/01/24 17:21:53;;;;;;;35.20;18.58;;;3.40;1.00;;;;;;6191918;23;20257;-82
2023/01/24 17:24:23;;;;;;;35.38;19.95;;;3.50;1.00;;;;;;6191687;23;20213;-82
2023/01/24 17:26:52;;;;;;;30.73;19.90;;;3.50;1.00;;;;;;6192118;23;20290;-85
2023/01/24 17:29:25;;;;;;;28.88;18.33;;;3.50;1.00;;;;;;6195648;22;20289;-82
2023/01/24 17:31:52;;;;;;;35.75;19.98;;;3.50;1.00;;;;;;6165775;23;21051;-80
2023/01/24 17:34:19;;;;;;;33.22;19.23;;;3.60;1.00;;;;;;6193927;23;20214;-84
2023/01/24 17:36:52;;;;;;;33.08;17.67;;;3.60;1.00;;;;;;6192278;22;20217;-83
2023/01/24 17:39:33;;;;;;;31.10;18.17;;;3.60;1.00;;;;;;6194000;23;21154;-84
2023/01/24 17:42:04;;;;;;;35.72;18.75;;;3.70;1.00;;;;;;6178106;22;20274;-83
2023/01/24 17:44:45;;;;;;;;;;;;;;;;;;;;;
2023/01/24 17:47:19;;;;;;;30.05;18.63;;;3.60;1.00;;;;;;6198862;23;51815;-85
2023/01/24 17:50:01;;;;;;;35.45;19.85;;;3.50;1.00;;;;;;6201215;23;20234;-83
2023/01/24 17:52:33;;;;;;;32.22;19.60;;;3.60;1.00;;;;;;6197867;23;20277;-84
2023/01/24 17:55:00;;;;;;;30.80;17.15;;;3.60;1.00;;;;;;6196349;23;20268;-83
2023/01/24 17:57:33;;;;;;;33.67;19.15;;;3.50;1.00;;;;;;6198337;23;20237;-83
2023/01/24 18:00:01;;;;;;;32.90;18.63;;;3.50;1.00;;;;;;6184839;23;20260;-84
2023/01/24 18:02:40;;;;;;;40.53;19.17;;;3.50;1.00;;;;;;6199435;23;20210;-85
2023/01/24 18:05:12;;;;;;;31.80;17.70;;;3.50;1.00;;;;;;6178446;23;20238;-83
2023/01/24 18:07:42;;;;;;;34.65;19.70;;;3.50;1.00;;;;;;6192771;23;20214;-84
2023/01/24 18:10:13;;;;;;;30.40;18.60;;;3.50;1.00;;;;;;6196175;23;20214;-81
2023/01/24 18:12:48;;;;;;;52.03;26.02;;;3.50;1.00;;;;;;6188795;23;20210;-82
2023/01/24 18:15:22;;;;;;;31.10;19.08;;;3.50;1.00;;;;;;6193544;23;20212;-80
2023/01/24 18:18:12;;;;;;;30.08;15.60;;;3.60;1.00;;;;;;6192280;23;20297;-80
2023/01/24 18:20:52;;;;;;;27.15;17.52;;;3.50;1.00;;;;;;6192774;23;20263;-81
2023/01/24 18:23:22;;;;;;;46.80;18.20;;;3.60;1.00;;;;;;6195943;23;20214;-80
2023/01/24 18:25:51;;;;;;;29.85;17.00;;;3.60;1.00;;;;;;6176516;23;20237;-81
2023/01/24 18:28:38;;;;;;;36.20;17.42;;;3.60;1.00;;;;;;6192742;23;21645;-80
2023/01/24 18:31:21;;;;;;;29.63;17.55;;;3.60;1.00;;;;;;6137189;23;20222;-79
2023/01/24 18:34:03;;;;;;;29.65;17.80;;;3.60;1.00;;;;;;6191282;23;20210;-83
2023/01/24 18:36:32;;;;;;;33.03;19.10;;;3.50;1.00;;;;;;6176153;23;20210;-81
2023/01/24 18:39:02;;;;;;;29.80;17.70;;;3.40;1.00;;;;;;6191748;23;20265;-79
2023/01/24 18:41:32;;;;;;;24.60;17.15;;;3.50;1.00;;;;;;6194014;23;20651;-81
2023/01/24 18:44:06;;;;;;;39.20;18.90;;;3.50;1.00;;;;;;6194444;23;20221;-81
2023/01/24 18:46:39;;;;;;;32.92;17.60;;;3.50;1.00;;;;;;6192865;23;20265;-79
2023/01/24 18:49:20;;;;;;;28.50;17.40;;;3.50;1.00;;;;;;6165368;22;20224;-80
2023/01/24 18:52:02;;;;;;;26.52;15.57;;;3.50;1.00;;;;;;6192970;23;20218;-82
2023/01/24 18:54:32;;;;;;;31.52;17.90;;;3.50;1.00;;;;;;6191302;23;20214;-82
2023/01/24 18:57:01;;;;;;;32.70;20.95;;;3.50;1.00;;;;;;6193717;23;20214;-82
2023/01/24 18:59:33;;;;;;;29.08;16.88;;;3.50;1.00;;;;;;6192460;22;20667;-80
2023/01/24 19:02:03;;;;;;;28.98;18.05;;;3.50;1.00;;;;;;6194328;22;20225;-80
2023/01/24 19:04:32;;;;;;;32.33;17.45;;;3.50;1.00;;;;;;6193643;23;20206;-81
2023/01/24 19:07:23;;;;;;;24.42;15.95;;;3.60;1.00;;;;;;6197468;22;20218;-84
2023/01/24 19:09:52;;;;;;;30.17;17.02;;;3.60;1.00;;;;;;6184458;22;20222;-84
2023/01/24 19:12:32;;;;;;;33.70;17.77;;;3.60;1.00;;;;;;6187853;23;20241;-84
2023/01/24 19:15:03;;;;;;;33.40;18.42;;;3.60;1.00;;;;;;6200038;22;20218;-82
2023/01/24 19:17:30;;;;;;;26.45;17.60;;;3.60;1.00;;;;;;6198362;23;20214;-82
2023/01/24 19:20:01;;;;;;;24.75;15.52;;;3.60;1.00;;;;;;6177386;22;20210;-81
2023/01/24 19:22:31;;;;;;;25.20;15.65;;;3.60;1.00;;;;;;6196675;22;20222;-81
2023/01/24 19:25:04;;;;;;;27.85;15.88;;;3.50;1.00;;;;;;6196473;23;20218;-82
2023/01/24 19:27:32;;;;;;;30.38;15.93;;;3.50;1.00;;;;;;6199229;23;20272;-81
2023/01/24 19:30:03;;;;;;;30.00;17.45;;;3.40;1.00;;;;;;6195573;22;20210;-84
2023/01/24 19:32:31;;;;;;;29.92;16.98;;;3.40;1.00;;;;;;6195948;23;20280;-83
2023/01/24 19:35:01;;;;;;;22.38;15.50;;;3.40;1.00;;;;;;6176794;22;20235;-79
2023/01/24 19:37:31;;;;;;;33.58;17.05;;;3.50;1.00;;;;;;6176165;23;20241;-83
2023/01/24 19:39:58;;;;;;;25.08;16.40;;;3.40;1.00;;;;;;6178099;23;20271;-82
2023/01/24 19:42:29;;;;;;;26.30;15.48;;;3.40;1.00;;;;;;6166062;23;20298;-82
2023/01/24 19:45:01;;;;;;;23.73;15.27;;;3.20;1.00;;;;;;6197164;22;21079;-83
2023/01/24 19:47:34;;;;;;;26.50;16.98;;;3.30;1.00;;;;;;6179698;23;20380;-80
2023/01/24 19:50:03;;;;;;;24.13;15.02;;;3.40;1.00;;;;;;6195168;23;20205;-83
2023/01/24 19:52:32;;;;;;;27.40;16.15;;;3.40;1.00;;;;;;6196604;23;20983;-82
2023/01/24 19:55:01;;;;;;;26.13;17.92;;;3.40;1.00;;;;;;6191853;23;20316;-82
2023/01/24 19:57:31;;;;;;;26.13;16.40;;;3.30;1.00;;;;;;6191697;23;20273;-84
2023/01/24 20:00:10;;;;;;;22.95;16.50;;;3.30;1.00;;;;;;6190712;23;20281;-82
2023/01/24 20:02:51;;;;;;;23.67;15.38;;;3.20;1.00;;;;;;6189841;22;20206;-81
2023/01/24 20:05:24;;;;;;;25.60;17.02;;;3.20;1.00;;;;;;6192179;23;20206;-83
2023/01/24 20:07:54;;;;;;;26.95;16.65;;;3.20;1.00;;;;;;6194922;23;20218;-82
2023/01/24 20:10:21;;;;;;;27.95;16.67;;;3.30;1.00;;;;;;6166470;23;20292;-82
2023/01/24 20:13:01;;;;;;;28.33;16.88;;;3.30;1.00;;;;;;6191932;23;20214;-84
2023/01/24 20:15:34;;;;;;;24.73;15.40;;;3.30;1.00;;;;;;6193835;23;20240;-81
2023/01/24 20:18:09;;;;;;;22.13;14.43;;;3.20;1.00;;;;;;6192721;23;20218;-82
2023/01/24 20:20:51;;;;;;;26.45;15.35;;;3.20;1.00;;;;;;6163436;23;20221;-81
2023/01/24 20:23:21;;;;;;;23.65;13.93;;;3.20;1.00;;;;;;6148130;23;20220;-82
2023/01/24 20:26:00;;;;;;;26.35;17.98;;;3.30;1.00;;;;;;6160185;23;20674;-83
2023/01/24 20:28:40;;;;;;;25.33;15.43;;;3.30;1.00;;;;;;6163320;23;20253;-81
2023/01/24 20:31:09;;;;;;;25.83;14.95;;;3.30;1.00;;;;;;6162647;23;20207;-82
2023/01/24 20:33:42;;;;;;;21.85;14.95;;;3.40;1.00;;;;;;6160892;23;20219;-82
2023/01/24 20:36:14;;;;;;;26.55;15.80;;;3.40;1.00;;;;;;6160960;23;20297;-82
2023/01/24 20:38:43;;;;;;;24.42;15.73;;;3.30;1.00;;;;;;6161990;23;20246;-80
2023/01/24 20:41:20;;;;;;;30.60;15.32;;;3.40;1.00;;;;;;6162516;23;20218;-83
2023/01/24 20:44:03;;;;;;;27.35;16.23;;;3.40;1.00;;;;;;6163128;23;20194;-82
2023/01/24 20:46:32;;;;;;;29.38;16.35;;;3.50;1.00;;;;;;6145130;23;20246;-81
2023/01/24 20:49:01;;;;;;;28.25;16.60;;;3.60;1.00;;;;;;6131405;23;20230;-80
2023/01/24 20:51:31;;;;;;;29.55;18.27;;;3.50;1.00;;;;;;6160900;23;20933;-82
2023/01/24 20:54:02;;;;;;;24.77;15.52;;;3.50;1.00;;;;;;6135290;23;20278;-84
2023/01/24 20:56:31;;;;;;;25.85;15.05;;;3.60;1.00;;;;;;6148515;23;20254;-82